Terminal Aerodrome Forecast
Issued by NWS

Home | Current Version | Previous Version | Text Only | Print | Product List | Glossary On
Versions: 1 2 3 4 5 6 7 8 9 10 11 12 13 14 15 16 17 18
539
FTUS45 KFGZ 191143
TAFPRC
TAF
KPRC 191143Z 1912/2012 18006KT P6SM BKN050 OVC110
     FM191400 18011G18KT 5SM -SHRA SCT020 OVC030
     FM192300 18011KT 2SM -RASN BR OVC020=

USA.gov is the U.S. government's official web portal to all federal, state and local government web resources and services.